createdAt,value
2022-08-07T00:03:08.673Z,10.18
2022-08-07T00:05:52.813Z,10.40
2022-08-07T00:08:44.359Z,9.57
2022-08-07T00:11:29.914Z,9.27
2022-08-07T00:14:25.559Z,10.10
2022-08-07T00:17:11.465Z,8.85
2022-08-07T00:20:03.364Z,9.20
2022-08-07T00:22:51.782Z,9.13
2022-08-07T00:25:41.720Z,9.20
2022-08-07T00:28:22.368Z,8.40
2022-08-07T00:31:21.160Z,9.13
2022-08-07T00:34:02.721Z,9.05
2022-08-07T00:36:52.127Z,8.85
2022-08-07T00:39:33.479Z,7.97
2022-08-07T00:42:25.493Z,8.80
2022-08-07T00:45:16.348Z,8.68
2022-08-07T00:48:09.181Z,8.68
2022-08-07T00:50:51.760Z,8.05
2022-08-07T00:53:50.513Z,8.55
2022-08-07T00:56:51.094Z,8.30
2022-08-07T00:59:39.106Z,8.23
2022-08-07T01:02:28.458Z,8.43
2022-08-07T01:05:20.122Z,9.00
2022-08-07T01:08:05.405Z,8.70
2022-08-07T01:10:58.457Z,9.10
2022-08-07T01:13:56.084Z,8.15
2022-08-07T01:16:46.956Z,8.35
2022-08-07T01:19:32.296Z,7.83
2022-08-07T01:22:29.357Z,7.97
2022-08-07T01:25:40.016Z,7.05
2022-08-07T01:28:19.052Z,8.02
2022-08-07T01:31:03.623Z,7.72
2022-08-07T01:33:55.779Z,7.30
2022-08-07T01:36:42.246Z,6.75
2022-08-07T01:39:39.725Z,8.52
2022-08-07T01:42:58.835Z,7.00
2022-08-07T01:45:47.060Z,7.07
2022-08-07T01:48:41.048Z,6.75
2022-08-07T01:52:02.326Z,6.60
2022-08-07T01:54:57.069Z,6.72
2022-08-07T01:58:06.051Z,6.80
2022-08-07T02:01:09.848Z,7.35
2022-08-07T02:03:57.580Z,6.53
2022-08-07T02:06:47.993Z,6.20
2022-08-07T02:09:58.511Z,6.80
2022-08-07T02:12:57.004Z,6.47
2022-08-07T02:15:53.270Z,6.55
2022-08-07T02:21:55.416Z,6.07
2022-08-07T02:24:44.640Z,5.88
2022-08-07T02:27:36.348Z,7.03
2022-08-07T02:30:24.000Z,6.18
2022-08-07T02:33:15.187Z,5.45
2022-08-07T02:36:30.257Z,6.05
2022-08-07T02:39:16.175Z,5.65
2022-08-07T02:42:10.313Z,6.25
2022-08-07T02:45:16.003Z,6.93
2022-08-07T02:48:10.273Z,6.10
2022-08-07T02:51:04.934Z,6.30
2022-08-07T02:54:00.945Z,5.90
2022-08-07T02:56:50.214Z,6.55
2022-08-07T02:59:34.932Z,6.30
2022-08-07T03:02:26.145Z,6.47
2022-08-07T03:05:10.911Z,5.80
2022-08-07T03:08:07.637Z,7.35
2022-08-07T03:10:53.901Z,6.78
2022-08-07T03:13:49.487Z,6.68
2022-08-07T03:16:39.909Z,6.88
2022-08-07T03:19:28.904Z,6.70
2022-08-07T03:22:30.388Z,7.57
2022-08-07T03:25:21.147Z,7.38
2022-08-07T03:28:09.617Z,8.07
2022-08-07T03:31:24.544Z,7.10
2022-08-07T03:34:18.637Z,7.57
2022-08-07T03:37:16.190Z,7.75
2022-08-07T03:40:14.955Z,8.85
2022-08-07T03:42:58.395Z,8.50
2022-08-07T03:45:49.841Z,9.00
2022-08-07T03:48:45.617Z,8.98
2022-08-07T03:51:59.096Z,8.88
2022-08-07T03:54:57.369Z,8.57
2022-08-07T03:58:33.395Z,10.50
2022-08-07T04:01:13.751Z,9.38
2022-08-07T04:03:57.071Z,9.32
2022-08-07T04:06:44.822Z,9.07
2022-08-07T04:09:38.067Z,9.07
2022-08-07T04:12:37.797Z,9.93
2022-08-07T04:15:28.039Z,8.55
2022-08-07T04:18:58.071Z,9.23
2022-08-07T04:21:17.825Z,9.83
2022-08-07T04:24:07.046Z,9.20
2022-08-07T04:26:55.881Z,8.57
2022-08-07T04:29:58.967Z,8.65
2022-08-07T04:33:07.790Z,9.68
2022-08-07T04:35:59.954Z,10.30
2022-08-07T04:38:47.774Z,8.55
2022-08-07T04:41:36.856Z,8.82
2022-08-07T04:44:26.011Z,9.50
2022-08-07T04:47:56.885Z,9.02
2022-08-07T04:50:29.760Z,8.93
2022-08-07T04:54:01.174Z,9.32
2022-08-07T04:58:12.968Z,9.68
2022-08-07T05:00:11.650Z,9.20
2022-08-07T05:03:16.894Z,8.75
2022-08-07T05:06:19.603Z,8.73
2022-08-07T05:09:08.954Z,9.05
2022-08-07T05:11:58.301Z,7.90
2022-08-07T05:15:04.080Z,8.40
2022-08-07T05:17:56.142Z,8.85
2022-08-07T05:20:43.120Z,9.05
2022-08-07T05:23:43.779Z,8.65
2022-08-07T05:26:30.018Z,8.75
2022-08-07T05:29:24.713Z,8.88
2022-08-07T05:32:16.704Z,9.40
2022-08-07T05:34:59.968Z,8.32
2022-08-07T05:37:43.684Z,9.05
2022-08-07T05:40:28.805Z,8.38
2022-08-07T05:43:17.665Z,8.82
2022-08-07T05:46:01.192Z,8.80
2022-08-07T05:48:58.421Z,9.40
2022-08-07T05:51:46.382Z,8.73
2022-08-07T05:54:44.264Z,9.15
2022-08-07T05:57:45.122Z,8.88
2022-08-07T06:00:26.896Z,8.50
2022-08-07T06:03:18.665Z,8.02
2022-08-07T06:06:01.884Z,7.43
2022-08-07T06:08:51.544Z,6.65
2022-08-07T06:11:32.874Z,6.68
2022-08-07T06:14:28.718Z,6.05
2022-08-07T06:17:14.363Z,6.30
2022-08-07T06:20:04.798Z,6.30
2022-08-07T06:23:02.428Z,6.10
2022-08-07T06:25:59.648Z,5.95
2022-08-07T06:28:41.430Z,6.00
2022-08-07T06:31:46.664Z,5.32
2022-08-07T06:34:40.678Z,6.15
2022-08-07T06:37:44.099Z,5.40
2022-08-07T06:40:35.203Z,5.85
2022-08-07T06:43:23.925Z,5.82
2022-08-07T06:46:20.391Z,5.32
2022-08-07T06:49:21.593Z,5.35
2022-08-07T06:52:12.825Z,4.88
2022-08-07T06:55:33.272Z,5.40
2022-08-07T06:58:06.784Z,5.05
2022-08-07T07:01:05.078Z,5.13
2022-08-07T07:03:55.154Z,4.93
2022-08-07T07:07:00.614Z,5.20
2022-08-07T07:09:42.899Z,4.60
2022-08-07T07:12:48.752Z,4.65
2022-08-07T07:15:37.745Z,4.85
2022-08-07T07:18:48.146Z,4.65
2022-08-07T07:22:04.595Z,4.28
2022-08-07T07:28:03.509Z,4.22
2022-08-07T07:30:53.561Z,3.38
2022-08-07T07:33:39.385Z,4.38
2022-08-07T07:36:32.415Z,4.25
2022-08-07T07:39:25.697Z,4.53
2022-08-07T07:42:20.877Z,3.78
2022-08-07T07:45:10.213Z,4.53
2022-08-07T07:47:54.624Z,4.30
2022-08-07T07:51:01.976Z,4.45
2022-08-07T07:53:53.827Z,3.30
2022-08-07T07:56:43.623Z,4.18
2022-08-07T07:59:52.498Z,3.50
2022-08-07T08:03:00.921Z,3.28
2022-08-07T08:05:55.140Z,3.88
2022-08-07T08:08:41.863Z,3.70
2022-08-07T08:11:59.250Z,3.50
2022-08-07T08:14:31.492Z,3.92
2022-08-07T08:17:58.243Z,4.28
2022-08-07T08:23:38.080Z,3.33
2022-08-07T08:26:50.277Z,2.97
2022-08-07T08:29:54.136Z,3.95
2022-08-07T08:32:41.452Z,3.85
2022-08-07T08:35:39.371Z,3.67
2022-08-07T08:38:34.243Z,3.70
2022-08-07T08:41:57.285Z,3.85
2022-08-07T08:44:44.765Z,3.13
2022-08-07T08:47:52.076Z,3.33
2022-08-07T08:50:47.457Z,3.25
2022-08-07T08:53:45.816Z,2.88
2022-08-07T08:56:37.639Z,3.17
2022-08-07T08:59:42.313Z,2.83
2022-08-07T09:02:38.254Z,2.63
2022-08-07T09:05:38.055Z,2.83
2022-08-07T09:08:40.437Z,3.15
2022-08-07T09:11:51.157Z,2.47
2022-08-07T09:14:41.406Z,2.60
2022-08-07T09:18:01.491Z,2.63
2022-08-07T09:21:01.118Z,2.28
2022-08-07T09:24:31.666Z,2.63
2022-08-07T09:27:22.428Z,2.10
2022-08-07T09:30:10.611Z,2.53
2022-08-07T09:33:40.707Z,2.22
2022-08-07T09:36:27.074Z,2.58
2022-08-07T09:39:53.902Z,2.42
2022-08-07T09:42:50.399Z,2.25
2022-08-07T09:47:50.342Z,2.10
2022-08-07T09:50:00.491Z,1.90
2022-08-07T09:52:33.485Z,2.03
2022-08-07T09:59:14.575Z,1.98
2022-08-07T10:02:55.634Z,2.17
2022-08-07T10:06:17.565Z,1.70
2022-08-07T10:10:00.640Z,1.40
2022-08-07T10:13:55.120Z,1.92
2022-08-07T10:16:49.559Z,1.88
2022-08-07T10:19:47.499Z,1.45
2022-08-07T10:22:50.885Z,1.55
2022-08-07T10:25:43.280Z,1.55
2022-08-07T10:28:57.300Z,1.92
2022-08-07T10:32:01.542Z,2.47
2022-08-07T10:35:14.903Z,1.58
2022-08-07T10:38:35.152Z,1.67
2022-08-07T10:41:47.027Z,1.33
2022-08-07T10:44:40.534Z,1.58
2022-08-07T10:47:53.654Z,1.80
2022-08-07T10:50:51.295Z,1.63
2022-08-07T10:53:44.575Z,1.40
2022-08-07T10:56:44.377Z,1.50
2022-08-07T10:59:37.372Z,1.48
2022-08-07T11:02:38.083Z,1.60
2022-08-07T11:05:49.276Z,1.40
2022-08-07T11:08:47.373Z,1.73
2022-08-07T11:11:36.106Z,1.40
2022-08-07T11:14:43.826Z,1.98
2022-08-07T11:17:47.624Z,1.58
2022-08-07T11:20:41.183Z,1.33
2022-08-07T11:23:38.839Z,1.60
2022-08-07T11:26:29.427Z,1.65
2022-08-07T11:29:41.436Z,1.23
2022-08-07T11:32:48.235Z,1.75
2022-08-07T11:35:58.959Z,1.73
2022-08-07T11:38:50.617Z,1.70
2022-08-07T11:42:02.488Z,1.77
2022-08-07T11:44:58.167Z,1.50
2022-08-07T11:48:29.735Z,1.67
2022-08-07T11:51:44.605Z,1.90
2022-08-07T11:54:54.962Z,1.38
2022-08-07T11:57:59.861Z,1.65
2022-08-07T12:01:01.855Z,1.60
2022-08-07T12:04:10.183Z,1.88
2022-08-07T12:07:09.001Z,1.73
2022-08-07T12:10:16.194Z,1.70
2022-08-07T12:13:03.396Z,1.75
2022-08-07T12:16:06.890Z,1.65
2022-08-07T12:18:56.401Z,1.90
2022-08-07T12:22:37.873Z,1.95
2022-08-07T12:26:03.215Z,1.67
2022-08-07T12:28:39.275Z,1.73
2022-08-07T12:31:53.303Z,1.55
2022-08-07T12:34:49.663Z,1.90
2022-08-07T12:38:10.169Z,1.63
2022-08-07T12:40:52.181Z,1.33
2022-08-07T12:44:02.762Z,1.88
2022-08-07T12:47:21.855Z,1.58
2022-08-07T12:50:39.315Z,1.30
2022-08-07T12:54:03.189Z,2.38
2022-08-07T12:56:42.371Z,1.77
2022-08-07T12:59:54.819Z,1.60
2022-08-07T13:03:07.341Z,1.48
2022-08-07T13:06:21.687Z,1.60
2022-08-07T13:10:37.136Z,1.77
2022-08-07T13:13:04.321Z,1.90
2022-08-07T13:15:59.304Z,1.60
2022-08-07T13:18:58.080Z,1.80
2022-08-07T13:22:01.986Z,1.88
2022-08-07T13:25:06.766Z,1.52
2022-08-07T13:28:11.559Z,1.63
2022-08-07T13:31:12.921Z,1.70
2022-08-07T13:34:32.788Z,2.08
2022-08-07T13:37:19.962Z,1.75
2022-08-07T13:40:36.188Z,1.92
2022-08-07T13:43:24.029Z,1.67
2022-08-07T13:46:23.182Z,1.75
2022-08-07T13:50:34.578Z,1.95
2022-08-07T13:52:36.228Z,1.80
2022-08-07T13:55:38.040Z,2.25
2022-08-07T13:58:56.890Z,2.05
2022-08-07T14:01:51.005Z,2.10
2022-08-07T14:04:55.344Z,1.98
2022-08-07T14:08:00.915Z,1.80
2022-08-07T14:11:14.811Z,2.40
2022-08-07T14:14:02.034Z,2.42
2022-08-07T14:16:55.010Z,2.22
2022-08-07T14:20:43.775Z,2.03
2022-08-07T14:23:31.604Z,2.05
2022-08-07T14:30:06.395Z,1.70
2022-08-07T14:32:50.015Z,2.08
2022-08-07T14:38:33.995Z,2.05
2022-08-07T14:41:34.057Z,2.17
2022-08-07T14:44:35.492Z,2.30
2022-08-07T14:47:18.438Z,2.25
2022-08-07T14:50:11.271Z,2.38
2022-08-07T14:56:30.109Z,2.63
2022-08-07T15:00:05.262Z,2.17
2022-08-07T15:02:34.887Z,2.20
2022-08-07T15:05:25.065Z,2.30
2022-08-07T15:08:07.206Z,1.88
2022-08-07T15:11:07.946Z,2.40
2022-08-07T15:13:58.154Z,2.33
2022-08-07T15:16:55.918Z,2.25
2022-08-07T15:23:20.394Z,2.47
2022-08-07T15:26:21.093Z,2.65
2022-08-07T15:30:09.265Z,2.13
2022-08-07T15:44:57.990Z,2.70
2022-08-07T15:48:00.749Z,2.13
2022-08-07T15:51:08.573Z,2.33
2022-08-07T15:53:55.110Z,2.50
2022-08-07T15:56:44.897Z,2.40
2022-08-07T15:59:39.585Z,2.25
2022-08-07T16:02:34.882Z,2.70
2022-08-07T16:05:31.215Z,2.40
2022-08-07T16:08:31.591Z,2.10
2022-08-07T16:11:39.894Z,2.00
2022-08-07T16:14:49.877Z,2.50
2022-08-07T16:18:01.318Z,2.70
2022-08-07T16:22:01.419Z,2.15
2022-08-07T16:24:09.001Z,2.03
2022-08-07T16:27:02.075Z,2.30
2022-08-07T16:30:31.056Z,2.20
2022-08-07T16:34:02.032Z,2.08
2022-08-07T16:37:01.988Z,2.17
2022-08-07T16:40:23.156Z,1.90
2022-08-07T16:44:03.701Z,2.20
2022-08-07T16:47:09.576Z,2.15
2022-08-07T16:50:37.076Z,2.30
2022-08-07T16:54:06.251Z,1.88
2022-08-07T16:58:00.993Z,2.30
2022-08-07T17:00:46.788Z,2.33
2022-08-07T17:04:00.137Z,1.83
2022-08-07T17:07:03.473Z,2.20
2022-08-07T17:10:06.347Z,2.10
2022-08-07T17:13:04.806Z,2.10
2022-08-07T17:15:59.013Z,2.53
2022-08-07T17:18:53.903Z,1.90
2022-08-07T17:21:50.623Z,2.40
2022-08-07T17:25:11.765Z,2.03
2022-08-07T17:28:11.761Z,2.10
2022-08-07T17:31:16.386Z,1.80
2022-08-07T17:34:18.267Z,2.03
2022-08-07T17:38:04.965Z,2.05
2022-08-07T17:40:30.241Z,2.20
2022-08-07T17:44:01.841Z,2.17
2022-08-07T17:46:41.712Z,2.20
2022-08-07T17:49:44.587Z,1.90
2022-08-07T17:52:39.640Z,1.60
2022-08-07T17:55:55.571Z,1.85
2022-08-07T17:58:47.718Z,2.70
2022-08-07T18:01:36.867Z,2.17
2022-08-07T18:04:35.724Z,2.30
2022-08-07T18:07:28.557Z,1.80
2022-08-07T18:10:33.127Z,1.80
2022-08-07T18:13:40.770Z,2.08
2022-08-07T18:16:57.706Z,1.80
2022-08-07T18:21:07.006Z,2.40
2022-08-07T18:22:57.695Z,2.13
2022-08-07T18:26:00.990Z,2.35
2022-08-07T18:28:58.491Z,2.10
2022-08-07T18:31:59.662Z,2.28
2022-08-07T18:35:22.683Z,1.98
2022-08-07T18:38:55.628Z,2.10
2022-08-07T18:45:39.971Z,2.13
2022-08-07T18:48:00.678Z,1.90
2022-08-07T18:51:05.273Z,1.95
2022-08-07T18:53:59.660Z,2.40
2022-08-07T18:57:29.898Z,2.10
2022-08-07T19:03:37.676Z,2.25
2022-08-07T19:06:35.633Z,2.40
2022-08-07T19:09:55.957Z,2.22
2022-08-07T19:13:10.296Z,2.35
2022-08-07T19:16:05.503Z,2.00
2022-08-07T19:19:07.842Z,2.65
2022-08-07T19:22:04.111Z,2.92
2022-08-07T19:24:48.829Z,2.15
2022-08-07T19:28:56.385Z,2.42
2022-08-07T19:31:42.873Z,2.53
2022-08-07T19:34:02.606Z,3.25
2022-08-07T19:36:56.585Z,2.47
2022-08-07T19:40:02.350Z,2.60
2022-08-07T19:42:51.581Z,2.90
2022-08-07T19:46:05.795Z,3.28
2022-08-07T19:48:54.759Z,2.75
2022-08-07T19:51:52.498Z,3.25
2022-08-07T19:54:56.401Z,3.10
2022-08-07T19:58:03.121Z,2.97
2022-08-07T20:00:55.945Z,3.17
2022-08-07T20:03:38.331Z,2.83
2022-08-07T20:06:31.563Z,3.38
2022-08-07T20:10:12.619Z,3.40
2022-08-07T20:12:35.940Z,3.25
2022-08-07T20:15:22.250Z,2.90
2022-08-07T20:18:14.748Z,3.45
2022-08-07T20:21:03.395Z,3.33
2022-08-07T20:24:10.765Z,3.20
2022-08-07T20:26:55.713Z,3.65
2022-08-07T20:29:57.539Z,3.65
2022-08-07T20:32:51.528Z,3.50
2022-08-07T20:35:51.940Z,3.45
2022-08-07T20:39:00.294Z,3.53
2022-08-07T20:41:49.491Z,4.00
2022-08-07T20:44:40.760Z,3.45
2022-08-07T20:47:56.392Z,4.47
2022-08-07T20:50:41.711Z,3.97
2022-08-07T20:54:02.076Z,4.40
2022-08-07T20:56:48.583Z,4.00
2022-08-07T21:00:07.710Z,4.15
2022-08-07T21:02:59.132Z,3.90
2022-08-07T21:05:56.368Z,3.75
2022-08-07T21:08:49.456Z,4.20
2022-08-07T21:11:50.541Z,3.75
2022-08-07T21:14:35.679Z,3.83
2022-08-07T21:18:03.694Z,4.22
2022-08-07T21:20:33.647Z,4.20
2022-08-07T21:23:36.433Z,4.85
2022-08-07T21:26:42.922Z,5.18
2022-08-07T21:29:38.078Z,4.40
2022-08-07T21:32:47.430Z,4.63
2022-08-07T21:36:05.766Z,4.50
2022-08-07T21:38:55.531Z,4.25
2022-08-07T21:42:00.539Z,4.50
2022-08-07T21:44:51.622Z,4.43
2022-08-07T21:47:50.397Z,5.03
2022-08-07T21:50:39.639Z,4.60
2022-08-07T21:53:37.040Z,5.07
2022-08-07T21:56:47.027Z,4.47
2022-08-07T22:00:04.404Z,4.78
2022-08-07T22:02:53.513Z,4.93
2022-08-07T22:05:51.615Z,5.15
2022-08-07T22:08:41.805Z,4.93
2022-08-07T22:11:25.006Z,5.47
2022-08-07T22:14:34.559Z,5.45
2022-08-07T22:17:27.115Z,5.78
2022-08-07T22:20:26.358Z,5.40
2022-08-07T22:23:25.479Z,5.10
2022-08-07T22:26:25.566Z,5.25
2022-08-07T22:29:22.468Z,5.70
2022-08-07T22:32:27.557Z,5.68
2022-08-07T22:35:18.364Z,5.90
2022-08-07T22:38:24.153Z,6.28
2022-08-07T22:41:14.299Z,5.77
2022-08-07T22:44:13.000Z,6.57
2022-08-07T22:47:28.361Z,5.63
2022-08-07T22:50:37.879Z,5.70
2022-08-07T22:54:06.639Z,5.70
2022-08-07T22:57:26.063Z,5.88
2022-08-07T23:00:12.646Z,5.82
2022-08-07T23:03:23.839Z,6.18
2022-08-07T23:06:31.332Z,5.90
2022-08-07T23:10:04.865Z,6.55
2022-08-07T23:12:57.308Z,6.65
2022-08-07T23:16:06.992Z,7.45
2022-08-07T23:19:19.449Z,7.63
2022-08-07T23:22:39.152Z,8.05
2022-08-07T23:25:41.538Z,8.25
2022-08-07T23:28:37.491Z,8.20
2022-08-07T23:35:01.055Z,7.85
2022-08-07T23:38:04.057Z,8.70
2022-08-07T23:40:54.471Z,9.38
2022-08-07T23:44:24.835Z,9.20
2022-08-07T23:47:30.658Z,10.05
2022-08-07T23:50:44.223Z,9.85
2022-08-07T23:53:51.800Z,10.13
2022-08-07T23:56:58.216Z,11.20
